sensor_id;sensor_type;location;lat;lon;timestamp;P1;durP1;ratioP1;P2;durP2;ratioP2
11854;SDS011;5987;53.140;8.904;2023-06-24T00:00:17;12.07;;;6.23;;
11854;SDS011;5987;53.140;8.904;2023-06-24T00:03:21;9.23;;;6.07;;
11854;SDS011;5987;53.140;8.904;2023-06-24T00:06:25;8.13;;;6.43;;
11854;SDS011;5987;53.140;8.904;2023-06-24T00:09:29;12.17;;;6.87;;
11854;SDS011;5987;53.140;8.904;2023-06-24T00:12:34;11.83;;;7.20;;
11854;SDS011;5987;53.140;8.904;2023-06-24T00:15:40;9.27;;;6.47;;
11854;SDS011;5987;53.140;8.904;2023-06-24T00:18:45;8.73;;;6.30;;
11854;SDS011;5987;53.140;8.904;2023-06-24T00:21:48;12.57;;;7.33;;
11854;SDS011;5987;53.140;8.904;2023-06-24T00:24:53;11.93;;;7.97;;
11854;SDS011;5987;53.140;8.904;2023-06-24T00:27:59;10.33;;;7.27;;
11854;SDS011;5987;53.140;8.904;2023-06-24T00:31:03;11.93;;;8.17;;
11854;SDS011;5987;53.140;8.904;2023-06-24T00:34:07;10.67;;;8.10;;
11854;SDS011;5987;53.140;8.904;2023-06-24T00:37:10;13.93;;;7.83;;
11854;SDS011;5987;53.140;8.904;2023-06-24T00:40:14;12.33;;;8.00;;
11854;SDS011;5987;53.140;8.904;2023-06-24T00:43:20;13.43;;;8.03;;
11854;SDS011;5987;53.140;8.904;2023-06-24T00:46:24;14.43;;;7.80;;
11854;SDS011;5987;53.140;8.904;2023-06-24T00:49:29;13.40;;;7.63;;
11854;SDS011;5987;53.140;8.904;2023-06-24T00:52:33;15.00;;;7.60;;
11854;SDS011;5987;53.140;8.904;2023-06-24T00:55:38;10.43;;;7.77;;
11854;SDS011;5987;53.140;8.904;2023-06-24T00:58:43;14.70;;;8.53;;
11854;SDS011;5987;53.140;8.904;2023-06-24T01:01:51;12.83;;;8.27;;
11854;SDS011;5987;53.140;8.904;2023-06-24T01:04:55;12.10;;;8.23;;
11854;SDS011;5987;53.140;8.904;2023-06-24T01:07:59;14.10;;;8.77;;
11854;SDS011;5987;53.140;8.904;2023-06-24T01:11:04;13.33;;;8.60;;
11854;SDS011;5987;53.140;8.904;2023-06-24T01:14:09;12.30;;;8.50;;
11854;SDS011;5987;53.140;8.904;2023-06-24T01:17:14;14.90;;;10.07;;
11854;SDS011;5987;53.140;8.904;2023-06-24T01:20:27;13.77;;;9.47;;
11854;SDS011;5987;53.140;8.904;2023-06-24T01:23:42;17.20;;;8.30;;
11854;SDS011;5987;53.140;8.904;2023-06-24T01:27:24;11.10;;;7.77;;
11854;SDS011;5987;53.140;8.904;2023-06-24T01:34:36;13.17;;;7.90;;
11854;SDS011;5987;53.140;8.904;2023-06-24T01:37:50;12.97;;;8.27;;
11854;SDS011;5987;53.140;8.904;2023-06-24T01:40:57;15.53;;;9.00;;
11854;SDS011;5987;53.140;8.904;2023-06-24T01:44:05;13.50;;;8.77;;
11854;SDS011;5987;53.140;8.904;2023-06-24T01:47:18;12.87;;;7.97;;
11854;SDS011;5987;53.140;8.904;2023-06-24T01:50:29;12.90;;;9.37;;
11854;SDS011;5987;53.140;8.904;2023-06-24T01:53:48;11.77;;;8.30;;
11854;SDS011;5987;53.140;8.904;2023-06-24T01:56:55;13.07;;;7.50;;
11854;SDS011;5987;53.140;8.904;2023-06-24T02:00:02;10.23;;;8.10;;
11854;SDS011;5987;53.140;8.904;2023-06-24T02:03:10;17.87;;;9.67;;
11854;SDS011;5987;53.140;8.904;2023-06-24T02:06:15;11.47;;;7.50;;
11854;SDS011;5987;53.140;8.904;2023-06-24T02:09:22;12.90;;;9.27;;
11854;SDS011;5987;53.140;8.904;2023-06-24T02:12:30;12.87;;;8.20;;
11854;SDS011;5987;53.140;8.904;2023-06-24T02:15:35;12.83;;;8.37;;
11854;SDS011;5987;53.140;8.904;2023-06-24T02:18:43;10.87;;;7.87;;
11854;SDS011;5987;53.140;8.904;2023-06-24T02:21:49;11.47;;;7.97;;
11854;SDS011;5987;53.140;8.904;2023-06-24T02:24:55;13.83;;;8.00;;
11854;SDS011;5987;53.140;8.904;2023-06-24T02:28:00;11.80;;;7.43;;
11854;SDS011;5987;53.140;8.904;2023-06-24T02:31:04;12.93;;;7.90;;
11854;SDS011;5987;53.140;8.904;2023-06-24T02:34:13;12.20;;;8.60;;
11854;SDS011;5987;53.140;8.904;2023-06-24T02:37:18;12.47;;;8.00;;
11854;SDS011;5987;53.140;8.904;2023-06-24T02:40:22;11.23;;;7.70;;
11854;SDS011;5987;53.140;8.904;2023-06-24T02:43:26;11.17;;;7.30;;
11854;SDS011;5987;53.140;8.904;2023-06-24T02:46:29;16.60;;;7.53;;
11854;SDS011;5987;53.140;8.904;2023-06-24T02:49:38;13.10;;;8.27;;
11854;SDS011;5987;53.140;8.904;2023-06-24T02:52:44;13.27;;;7.27;;
11854;SDS011;5987;53.140;8.904;2023-06-24T02:55:49;12.67;;;7.17;;
11854;SDS011;5987;53.140;8.904;2023-06-24T02:58:54;12.23;;;7.70;;
11854;SDS011;5987;53.140;8.904;2023-06-24T03:01:58;10.73;;;7.03;;
11854;SDS011;5987;53.140;8.904;2023-06-24T03:05:04;12.57;;;8.00;;
11854;SDS011;5987;53.140;8.904;2023-06-24T03:08:11;12.70;;;7.37;;
11854;SDS011;5987;53.140;8.904;2023-06-24T03:11:16;14.73;;;8.93;;
11854;SDS011;5987;53.140;8.904;2023-06-24T03:14:20;11.80;;;7.30;;
11854;SDS011;5987;53.140;8.904;2023-06-24T03:17:24;11.53;;;7.73;;
11854;SDS011;5987;53.140;8.904;2023-06-24T03:20:29;13.33;;;7.50;;
11854;SDS011;5987;53.140;8.904;2023-06-24T03:23:40;12.10;;;7.77;;
11854;SDS011;5987;53.140;8.904;2023-06-24T03:26:44;9.37;;;6.53;;
11854;SDS011;5987;53.140;8.904;2023-06-24T03:29:49;13.67;;;7.63;;
11854;SDS011;5987;53.140;8.904;2023-06-24T03:32:52;12.43;;;7.90;;
11854;SDS011;5987;53.140;8.904;2023-06-24T03:35:58;10.77;;;7.07;;
11854;SDS011;5987;53.140;8.904;2023-06-24T03:39:01;14.43;;;8.00;;
11854;SDS011;5987;53.140;8.904;2023-06-24T03:42:05;11.63;;;7.57;;
11854;SDS011;5987;53.140;8.904;2023-06-24T03:45:10;8.87;;;6.53;;
11854;SDS011;5987;53.140;8.904;2023-06-24T03:48:13;13.20;;;7.97;;
11854;SDS011;5987;53.140;8.904;2023-06-24T03:51:19;12.43;;;7.57;;
11854;SDS011;5987;53.140;8.904;2023-06-24T03:54:22;10.03;;;7.17;;
11854;SDS011;5987;53.140;8.904;2023-06-24T03:57:26;10.03;;;7.37;;
11854;SDS011;5987;53.140;8.904;2023-06-24T04:00:30;11.57;;;6.57;;
11854;SDS011;5987;53.140;8.904;2023-06-24T04:03:33;13.03;;;7.37;;
11854;SDS011;5987;53.140;8.904;2023-06-24T04:06:39;11.93;;;7.60;;
11854;SDS011;5987;53.140;8.904;2023-06-24T04:09:42;9.53;;;6.90;;
11854;SDS011;5987;53.140;8.904;2023-06-24T04:12:47;13.57;;;8.47;;
11854;SDS011;5987;53.140;8.904;2023-06-24T04:15:51;11.73;;;7.00;;
11854;SDS011;5987;53.140;8.904;2023-06-24T04:18:54;8.83;;;6.73;;
11854;SDS011;5987;53.140;8.904;2023-06-24T04:22:00;12.17;;;6.50;;
11854;SDS011;5987;53.140;8.904;2023-06-24T04:25:04;11.20;;;7.93;;
11854;SDS011;5987;53.140;8.904;2023-06-24T04:28:08;7.30;;;6.43;;
11854;SDS011;5987;53.140;8.904;2023-06-24T04:31:12;17.03;;;7.63;;
11854;SDS011;5987;53.140;8.904;2023-06-24T04:34:16;11.13;;;7.00;;
11854;SDS011;5987;53.140;8.904;2023-06-24T04:37:21;13.03;;;7.60;;
11854;SDS011;5987;53.140;8.904;2023-06-24T04:40:24;9.73;;;7.23;;
11854;SDS011;5987;53.140;8.904;2023-06-24T04:43:29;12.60;;;8.03;;
11854;SDS011;5987;53.140;8.904;2023-06-24T04:46:32;14.03;;;8.07;;
11854;SDS011;5987;53.140;8.904;2023-06-24T04:49:36;11.60;;;7.50;;
11854;SDS011;5987;53.140;8.904;2023-06-24T04:52:41;17.20;;;8.70;;
11854;SDS011;5987;53.140;8.904;2023-06-24T04:55:46;12.73;;;8.17;;
11854;SDS011;5987;53.140;8.904;2023-06-24T04:58:50;14.10;;;8.17;;
11854;SDS011;5987;53.140;8.904;2023-06-24T05:01:54;12.30;;;7.80;;
11854;SDS011;5987;53.140;8.904;2023-06-24T05:04:58;10.63;;;7.23;;
11854;SDS011;5987;53.140;8.904;2023-06-24T05:08:03;10.17;;;7.33;;
11854;SDS011;5987;53.140;8.904;2023-06-24T05:11:07;14.40;;;7.60;;
11854;SDS011;5987;53.140;8.904;2023-06-24T05:14:11;12.27;;;7.07;;
11854;SDS011;5987;53.140;8.904;2023-06-24T05:17:14;10.37;;;7.53;;
11854;SDS011;5987;53.140;8.904;2023-06-24T05:20:18;10.70;;;7.40;;
11854;SDS011;5987;53.140;8.904;2023-06-24T05:23:23;10.30;;;7.70;;
11854;SDS011;5987;53.140;8.904;2023-06-24T05:26:27;10.23;;;7.27;;
11854;SDS011;5987;53.140;8.904;2023-06-24T05:29:31;11.13;;;6.93;;
11854;SDS011;5987;53.140;8.904;2023-06-24T05:32:35;9.73;;;7.07;;
11854;SDS011;5987;53.140;8.904;2023-06-24T05:35:38;11.33;;;7.50;;
11854;SDS011;5987;53.140;8.904;2023-06-24T05:38:44;12.37;;;6.10;;
11854;SDS011;5987;53.140;8.904;2023-06-24T05:41:49;13.13;;;7.43;;
11854;SDS011;5987;53.140;8.904;2023-06-24T05:44:53;9.53;;;7.13;;
11854;SDS011;5987;53.140;8.904;2023-06-24T05:47:57;10.80;;;7.40;;
11854;SDS011;5987;53.140;8.904;2023-06-24T05:51:01;12.70;;;7.80;;
11854;SDS011;5987;53.140;8.904;2023-06-24T05:54:06;10.60;;;7.07;;
11854;SDS011;5987;53.140;8.904;2023-06-24T05:57:10;10.77;;;7.43;;
11854;SDS011;5987;53.140;8.904;2023-06-24T06:00:14;13.83;;;8.07;;
11854;SDS011;5987;53.140;8.904;2023-06-24T06:03:19;10.03;;;6.40;;
11854;SDS011;5987;53.140;8.904;2023-06-24T06:06:23;11.07;;;7.07;;
11854;SDS011;5987;53.140;8.904;2023-06-24T06:09:28;11.93;;;7.07;;
11854;SDS011;5987;53.140;8.904;2023-06-24T06:12:32;11.27;;;7.10;;
11854;SDS011;5987;53.140;8.904;2023-06-24T06:15:36;9.60;;;5.87;;
11854;SDS011;5987;53.140;8.904;2023-06-24T06:18:40;11.87;;;6.43;;
11854;SDS011;5987;53.140;8.904;2023-06-24T06:21:44;7.63;;;5.27;;
11854;SDS011;5987;53.140;8.904;2023-06-24T06:24:49;6.00;;;4.97;;
11854;SDS011;5987;53.140;8.904;2023-06-24T06:27:53;9.43;;;5.27;;
11854;SDS011;5987;53.140;8.904;2023-06-24T06:30:57;6.50;;;4.77;;
11854;SDS011;5987;53.140;8.904;2023-06-24T06:34:00;6.27;;;4.10;;
11854;SDS011;5987;53.140;8.904;2023-06-24T06:37:05;7.37;;;4.83;;
11854;SDS011;5987;53.140;8.904;2023-06-24T06:40:10;7.00;;;4.33;;
11854;SDS011;5987;53.140;8.904;2023-06-24T06:43:14;6.17;;;4.77;;
11854;SDS011;5987;53.140;8.904;2023-06-24T06:46:18;6.70;;;4.00;;
11854;SDS011;5987;53.140;8.904;2023-06-24T06:49:23;5.90;;;4.47;;
11854;SDS011;5987;53.140;8.904;2023-06-24T06:52:27;7.87;;;4.53;;
11854;SDS011;5987;53.140;8.904;2023-06-24T06:55:32;5.70;;;3.83;;
11854;SDS011;5987;53.140;8.904;2023-06-24T06:58:36;6.90;;;4.83;;
11854;SDS011;5987;53.140;8.904;2023-06-24T07:01:40;4.10;;;3.30;;
11854;SDS011;5987;53.140;8.904;2023-06-24T07:04:44;7.10;;;4.10;;
11854;SDS011;5987;53.140;8.904;2023-06-24T07:07:49;12.17;;;4.80;;
11854;SDS011;5987;53.140;8.904;2023-06-24T07:10:54;8.10;;;4.60;;
11854;SDS011;5987;53.140;8.904;2023-06-24T07:13:58;7.87;;;4.43;;
11854;SDS011;5987;53.140;8.904;2023-06-24T07:17:02;6.53;;;4.17;;
11854;SDS011;5987;53.140;8.904;2023-06-24T07:20:06;5.00;;;3.50;;
11854;SDS011;5987;53.140;8.904;2023-06-24T07:23:11;4.30;;;3.57;;
11854;SDS011;5987;53.140;8.904;2023-06-24T07:26:16;5.73;;;3.83;;
11854;SDS011;5987;53.140;8.904;2023-06-24T07:29:20;5.43;;;3.60;;
11854;SDS011;5987;53.140;8.904;2023-06-24T07:32:24;5.80;;;3.87;;
11854;SDS011;5987;53.140;8.904;2023-06-24T07:35:27;7.53;;;3.37;;
11854;SDS011;5987;53.140;8.904;2023-06-24T07:38:31;6.13;;;3.17;;
11854;SDS011;5987;53.140;8.904;2023-06-24T07:41:36;5.00;;;3.40;;
11854;SDS011;5987;53.140;8.904;2023-06-24T07:44:41;5.83;;;3.07;;
11854;SDS011;5987;53.140;8.904;2023-06-24T07:47:44;7.43;;;3.60;;
11854;SDS011;5987;53.140;8.904;2023-06-24T07:50:49;4.07;;;3.40;;
11854;SDS011;5987;53.140;8.904;2023-06-24T07:53:53;4.37;;;3.20;;
11854;SDS011;5987;53.140;8.904;2023-06-24T07:56:58;4.70;;;3.27;;
11854;SDS011;5987;53.140;8.904;2023-06-24T08:00:02;4.97;;;3.70;;
11854;SDS011;5987;53.140;8.904;2023-06-24T08:03:06;4.57;;;3.80;;
11854;SDS011;5987;53.140;8.904;2023-06-24T08:06:10;5.10;;;2.80;;
11854;SDS011;5987;53.140;8.904;2023-06-24T08:09:15;3.67;;;2.67;;
11854;SDS011;5987;53.140;8.904;2023-06-24T08:12:20;4.43;;;3.43;;
11854;SDS011;5987;53.140;8.904;2023-06-24T08:15:24;7.43;;;3.63;;
11854;SDS011;5987;53.140;8.904;2023-06-24T08:18:28;3.23;;;2.90;;
11854;SDS011;5987;53.140;8.904;2023-06-24T08:21:32;4.70;;;3.13;;
11854;SDS011;5987;53.140;8.904;2023-06-24T08:24:36;3.47;;;2.93;;
11854;SDS011;5987;53.140;8.904;2023-06-24T08:27:41;3.17;;;2.67;;
11854;SDS011;5987;53.140;8.904;2023-06-24T08:30:48;4.70;;;2.70;;
11854;SDS011;5987;53.140;8.904;2023-06-24T08:33:52;5.97;;;2.87;;
11854;SDS011;5987;53.140;8.904;2023-06-24T08:36:56;4.37;;;3.20;;
11854;SDS011;5987;53.140;8.904;2023-06-24T08:39:59;3.10;;;2.80;;
11854;SDS011;5987;53.140;8.904;2023-06-24T08:43:07;3.53;;;3.23;;
11854;SDS011;5987;53.140;8.904;2023-06-24T08:46:12;4.43;;;3.07;;
11854;SDS011;5987;53.140;8.904;2023-06-24T08:49:22;3.53;;;2.67;;
11854;SDS011;5987;53.140;8.904;2023-06-24T08:52:34;3.80;;;3.10;;
11854;SDS011;5987;53.140;8.904;2023-06-24T08:55:41;3.87;;;3.33;;
11854;SDS011;5987;53.140;8.904;2023-06-24T08:58:50;3.33;;;2.90;;
11854;SDS011;5987;53.140;8.904;2023-06-24T09:01:54;3.43;;;2.63;;
11854;SDS011;5987;53.140;8.904;2023-06-24T09:04:58;3.30;;;3.00;;
11854;SDS011;5987;53.140;8.904;2023-06-24T09:08:02;3.57;;;2.57;;
11854;SDS011;5987;53.140;8.904;2023-06-24T09:11:06;4.67;;;3.03;;
11854;SDS011;5987;53.140;8.904;2023-06-24T09:14:13;4.63;;;2.80;;
11854;SDS011;5987;53.140;8.904;2023-06-24T09:17:17;5.03;;;3.33;;
11854;SDS011;5987;53.140;8.904;2023-06-24T09:20:24;3.60;;;3.30;;
11854;SDS011;5987;53.140;8.904;2023-06-24T09:23:28;4.33;;;2.87;;
11854;SDS011;5987;53.140;8.904;2023-06-24T09:26:32;3.30;;;3.00;;
11854;SDS011;5987;53.140;8.904;2023-06-24T09:29:38;3.77;;;2.63;;
11854;SDS011;5987;53.140;8.904;2023-06-24T09:32:43;4.10;;;2.73;;
11854;SDS011;5987;53.140;8.904;2023-06-24T09:35:46;5.20;;;3.10;;
11854;SDS011;5987;53.140;8.904;2023-06-24T09:38:52;2.97;;;2.67;;
11854;SDS011;5987;53.140;8.904;2023-06-24T09:41:59;3.27;;;2.57;;
11854;SDS011;5987;53.140;8.904;2023-06-24T09:45:08;5.63;;;2.77;;
11854;SDS011;5987;53.140;8.904;2023-06-24T09:48:12;2.97;;;2.57;;
11854;SDS011;5987;53.140;8.904;2023-06-24T09:51:16;2.37;;;2.17;;
11854;SDS011;5987;53.140;8.904;2023-06-24T09:54:20;4.07;;;2.50;;
11854;SDS011;5987;53.140;8.904;2023-06-24T09:57:33;2.70;;;2.47;;
11854;SDS011;5987;53.140;8.904;2023-06-24T10:00:40;3.30;;;2.67;;
11854;SDS011;5987;53.140;8.904;2023-06-24T10:03:45;3.13;;;2.43;;
11854;SDS011;5987;53.140;8.904;2023-06-24T10:06:49;4.17;;;2.70;;
11854;SDS011;5987;53.140;8.904;2023-06-24T10:09:54;2.87;;;2.30;;
11854;SDS011;5987;53.140;8.904;2023-06-24T10:12:58;4.07;;;2.67;;
11854;SDS011;5987;53.140;8.904;2023-06-24T10:16:04;7.87;;;2.93;;
11854;SDS011;5987;53.140;8.904;2023-06-24T10:19:09;4.40;;;2.70;;
11854;SDS011;5987;53.140;8.904;2023-06-24T10:22:13;4.60;;;2.57;;
11854;SDS011;5987;53.140;8.904;2023-06-24T10:25:17;2.97;;;2.60;;
11854;SDS011;5987;53.140;8.904;2023-06-24T10:28:22;3.03;;;2.67;;
11854;SDS011;5987;53.140;8.904;2023-06-24T10:34:56;3.43;;;2.40;;
11854;SDS011;5987;53.140;8.904;2023-06-24T10:38:00;6.33;;;3.03;;
11854;SDS011;5987;53.140;8.904;2023-06-24T10:41:10;4.13;;;3.27;;
11854;SDS011;5987;53.140;8.904;2023-06-24T10:44:20;4.20;;;2.70;;
11854;SDS011;5987;53.140;8.904;2023-06-24T10:47:26;4.57;;;2.80;;
11854;SDS011;5987;53.140;8.904;2023-06-24T10:50:31;4.87;;;2.70;;
11854;SDS011;5987;53.140;8.904;2023-06-24T10:53:35;3.87;;;2.67;;
11854;SDS011;5987;53.140;8.904;2023-06-24T10:56:40;6.37;;;2.70;;
11854;SDS011;5987;53.140;8.904;2023-06-24T10:59:46;5.47;;;3.10;;
11854;SDS011;5987;53.140;8.904;2023-06-24T11:02:52;3.80;;;2.70;;
11854;SDS011;5987;53.140;8.904;2023-06-24T11:05:56;3.73;;;2.57;;
11854;SDS011;5987;53.140;8.904;2023-06-24T11:09:01;3.13;;;2.60;;
11854;SDS011;5987;53.140;8.904;2023-06-24T11:12:05;4.97;;;2.77;;
11854;SDS011;5987;53.140;8.904;2023-06-24T11:15:12;6.53;;;4.07;;
11854;SDS011;5987;53.140;8.904;2023-06-24T11:18:18;4.53;;;3.27;;
11854;SDS011;5987;53.140;8.904;2023-06-24T11:21:27;5.80;;;3.30;;
11854;SDS011;5987;53.140;8.904;2023-06-24T11:24:33;7.20;;;3.70;;
11854;SDS011;5987;53.140;8.904;2023-06-24T11:27:37;5.37;;;3.47;;
11854;SDS011;5987;53.140;8.904;2023-06-24T11:30:42;5.50;;;3.77;;
11854;SDS011;5987;53.140;8.904;2023-06-24T11:33:49;3.40;;;3.10;;
11854;SDS011;5987;53.140;8.904;2023-06-24T11:36:53;3.23;;;2.90;;
11854;SDS011;5987;53.140;8.904;2023-06-24T11:40:00;5.77;;;3.20;;
11854;SDS011;5987;53.140;8.904;2023-06-24T11:43:06;8.60;;;3.47;;
11854;SDS011;5987;53.140;8.904;2023-06-24T11:46:10;5.10;;;3.80;;
11854;SDS011;5987;53.140;8.904;2023-06-24T11:49:25;5.33;;;3.70;;
11854;SDS011;5987;53.140;8.904;2023-06-24T11:52:32;5.10;;;3.23;;
11854;SDS011;5987;53.140;8.904;2023-06-24T11:55:42;4.70;;;3.33;;
11854;SDS011;5987;53.140;8.904;2023-06-24T11:58:49;5.80;;;4.07;;
11854;SDS011;5987;53.140;8.904;2023-06-24T12:01:53;3.90;;;3.33;;
11854;SDS011;5987;53.140;8.904;2023-06-24T12:05:00;7.87;;;3.77;;
11854;SDS011;5987;53.140;8.904;2023-06-24T12:08:06;5.60;;;4.23;;
11854;SDS011;5987;53.140;8.904;2023-06-24T12:11:12;9.23;;;4.80;;
11854;SDS011;5987;53.140;8.904;2023-06-24T12:14:16;5.77;;;4.87;;
11854;SDS011;5987;53.140;8.904;2023-06-24T12:17:20;6.10;;;4.40;;
11854;SDS011;5987;53.140;8.904;2023-06-24T12:20:25;5.77;;;4.00;;
11854;SDS011;5987;53.140;8.904;2023-06-24T12:23:33;4.67;;;4.13;;
11854;SDS011;5987;53.140;8.904;2023-06-24T12:26:36;5.97;;;4.30;;
11854;SDS011;5987;53.140;8.904;2023-06-24T12:29:40;4.80;;;4.30;;
11854;SDS011;5987;53.140;8.904;2023-06-24T12:32:44;5.20;;;4.13;;
11854;SDS011;5987;53.140;8.904;2023-06-24T12:35:49;6.67;;;3.87;;
11854;SDS011;5987;53.140;8.904;2023-06-24T12:38:53;4.77;;;4.20;;
11854;SDS011;5987;53.140;8.904;2023-06-24T12:41:57;7.47;;;3.77;;
11854;SDS011;5987;53.140;8.904;2023-06-24T12:45:00;6.77;;;3.47;;
11854;SDS011;5987;53.140;8.904;2023-06-24T12:48:05;4.93;;;3.73;;
11854;SDS011;5987;53.140;8.904;2023-06-24T12:51:10;5.00;;;4.00;;
11854;SDS011;5987;53.140;8.904;2023-06-24T12:54:14;5.63;;;4.27;;
11854;SDS011;5987;53.140;8.904;2023-06-24T12:57:17;4.63;;;3.93;;
11854;SDS011;5987;53.140;8.904;2023-06-24T13:00:21;6.53;;;5.00;;
11854;SDS011;5987;53.140;8.904;2023-06-24T13:03:26;6.10;;;3.97;;
11854;SDS011;5987;53.140;8.904;2023-06-24T13:06:31;6.43;;;5.13;;
11854;SDS011;5987;53.140;8.904;2023-06-24T13:09:35;5.37;;;4.43;;
11854;SDS011;5987;53.140;8.904;2023-06-24T13:12:39;4.70;;;3.67;;
11854;SDS011;5987;53.140;8.904;2023-06-24T13:15:43;8.10;;;5.13;;
11854;SDS011;5987;53.140;8.904;2023-06-24T13:18:47;6.97;;;5.43;;
11854;SDS011;5987;53.140;8.904;2023-06-24T13:21:52;8.13;;;4.67;;
11854;SDS011;5987;53.140;8.904;2023-06-24T13:24:56;5.10;;;4.17;;
11854;SDS011;5987;53.140;8.904;2023-06-24T13:27:59;4.50;;;4.10;;
11854;SDS011;5987;53.140;8.904;2023-06-24T13:31:04;4.73;;;3.53;;
11854;SDS011;5987;53.140;8.904;2023-06-24T13:34:08;5.93;;;4.40;;
11854;SDS011;5987;53.140;8.904;2023-06-24T13:37:13;5.53;;;3.97;;
11854;SDS011;5987;53.140;8.904;2023-06-24T13:40:17;6.97;;;4.50;;
11854;SDS011;5987;53.140;8.904;2023-06-24T13:43:21;8.63;;;4.53;;
11854;SDS011;5987;53.140;8.904;2023-06-24T13:46:25;5.43;;;4.40;;
11854;SDS011;5987;53.140;8.904;2023-06-24T13:49:30;6.70;;;4.23;;
11854;SDS011;5987;53.140;8.904;2023-06-24T13:52:35;7.27;;;4.83;;
11854;SDS011;5987;53.140;8.904;2023-06-24T13:55:39;6.57;;;4.20;;
11854;SDS011;5987;53.140;8.904;2023-06-24T13:58:43;6.50;;;3.77;;
11854;SDS011;5987;53.140;8.904;2023-06-24T14:01:47;3.70;;;3.40;;
11854;SDS011;5987;53.140;8.904;2023-06-24T14:04:51;4.50;;;3.57;;
11854;SDS011;5987;53.140;8.904;2023-06-24T14:07:56;4.03;;;3.43;;
11854;SDS011;5987;53.140;8.904;2023-06-24T14:11:00;4.93;;;3.50;;
11854;SDS011;5987;53.140;8.904;2023-06-24T14:14:05;6.30;;;4.27;;
11854;SDS011;5987;53.140;8.904;2023-06-24T14:17:09;5.43;;;3.80;;
11854;SDS011;5987;53.140;8.904;2023-06-24T14:20:13;4.97;;;4.10;;
11854;SDS011;5987;53.140;8.904;2023-06-24T14:23:19;7.90;;;3.60;;
11854;SDS011;5987;53.140;8.904;2023-06-24T14:26:22;5.73;;;3.93;;
11854;SDS011;5987;53.140;8.904;2023-06-24T14:29:29;5.70;;;4.00;;
11854;SDS011;5987;53.140;8.904;2023-06-24T14:32:33;6.57;;;4.17;;
11854;SDS011;5987;53.140;8.904;2023-06-24T14:35:37;5.67;;;4.20;;
11854;SDS011;5987;53.140;8.904;2023-06-24T14:38:43;4.97;;;3.67;;
11854;SDS011;5987;53.140;8.904;2023-06-24T14:41:46;3.97;;;3.60;;
11854;SDS011;5987;53.140;8.904;2023-06-24T14:44:50;5.00;;;3.90;;
11854;SDS011;5987;53.140;8.904;2023-06-24T14:47:54;5.00;;;3.50;;
11854;SDS011;5987;53.140;8.904;2023-06-24T14:50:59;6.47;;;3.93;;
11854;SDS011;5987;53.140;8.904;2023-06-24T14:54:04;3.97;;;3.03;;
11854;SDS011;5987;53.140;8.904;2023-06-24T14:57:08;5.30;;;3.47;;
11854;SDS011;5987;53.140;8.904;2023-06-24T15:00:13;4.83;;;3.70;;
11854;SDS011;5987;53.140;8.904;2023-06-24T15:03:17;4.07;;;3.37;;
11854;SDS011;5987;53.140;8.904;2023-06-24T15:06:22;6.23;;;3.70;;
11854;SDS011;5987;53.140;8.904;2023-06-24T15:09:27;4.73;;;3.53;;
11854;SDS011;5987;53.140;8.904;2023-06-24T15:12:31;5.47;;;4.03;;
11854;SDS011;5987;53.140;8.904;2023-06-24T15:15:36;6.20;;;4.17;;
11854;SDS011;5987;53.140;8.904;2023-06-24T15:18:46;5.03;;;3.40;;
11854;SDS011;5987;53.140;8.904;2023-06-24T15:21:51;5.83;;;3.50;;
11854;SDS011;5987;53.140;8.904;2023-06-24T15:24:57;3.83;;;3.33;;
11854;SDS011;5987;53.140;8.904;2023-06-24T15:28:01;4.93;;;2.83;;
11854;SDS011;5987;53.140;8.904;2023-06-24T15:31:05;4.33;;;2.90;;
11854;SDS011;5987;53.140;8.904;2023-06-24T15:34:09;3.67;;;2.90;;
11854;SDS011;5987;53.140;8.904;2023-06-24T15:37:14;4.43;;;3.10;;
11854;SDS011;5987;53.140;8.904;2023-06-24T15:40:19;3.63;;;2.80;;
11854;SDS011;5987;53.140;8.904;2023-06-24T15:43:23;8.87;;;3.77;;
11854;SDS011;5987;53.140;8.904;2023-06-24T15:46:26;3.53;;;3.03;;
11854;SDS011;5987;53.140;8.904;2023-06-24T15:49:30;5.73;;;3.40;;
11854;SDS011;5987;53.140;8.904;2023-06-24T15:52:35;5.03;;;2.53;;
11854;SDS011;5987;53.140;8.904;2023-06-24T15:55:40;3.00;;;2.80;;
11854;SDS011;5987;53.140;8.904;2023-06-24T15:58:43;3.47;;;3.17;;
11854;SDS011;5987;53.140;8.904;2023-06-24T16:01:49;4.37;;;3.30;;
11854;SDS011;5987;53.140;8.904;2023-06-24T16:04:52;6.50;;;3.00;;
11854;SDS011;5987;53.140;8.904;2023-06-24T16:07:56;3.87;;;3.00;;
11854;SDS011;5987;53.140;8.904;2023-06-24T16:11:01;2.83;;;2.47;;
11854;SDS011;5987;53.140;8.904;2023-06-24T16:14:07;4.73;;;3.50;;
11854;SDS011;5987;53.140;8.904;2023-06-24T16:17:10;4.13;;;2.97;;
11854;SDS011;5987;53.140;8.904;2023-06-24T16:20:14;4.07;;;2.97;;
11854;SDS011;5987;53.140;8.904;2023-06-24T16:23:18;3.70;;;3.20;;
11854;SDS011;5987;53.140;8.904;2023-06-24T16:26:24;5.47;;;2.90;;
11854;SDS011;5987;53.140;8.904;2023-06-24T16:29:30;6.23;;;2.80;;
11854;SDS011;5987;53.140;8.904;2023-06-24T16:32:34;3.60;;;3.17;;
11854;SDS011;5987;53.140;8.904;2023-06-24T16:35:38;3.80;;;3.33;;
11854;SDS011;5987;53.140;8.904;2023-06-24T16:38:43;3.77;;;2.77;;
11854;SDS011;5987;53.140;8.904;2023-06-24T16:41:48;4.23;;;3.17;;
11854;SDS011;5987;53.140;8.904;2023-06-24T16:44:52;3.03;;;2.57;;
11854;SDS011;5987;53.140;8.904;2023-06-24T16:47:55;2.87;;;2.53;;
11854;SDS011;5987;53.140;8.904;2023-06-24T16:50:59;4.27;;;3.20;;
11854;SDS011;5987;53.140;8.904;2023-06-24T16:54:03;5.77;;;3.30;;
11854;SDS011;5987;53.140;8.904;2023-06-24T16:57:09;3.33;;;2.90;;
11854;SDS011;5987;53.140;8.904;2023-06-24T17:00:13;4.37;;;3.07;;
11854;SDS011;5987;53.140;8.904;2023-06-24T17:03:18;3.83;;;2.80;;
11854;SDS011;5987;53.140;8.904;2023-06-24T17:06:21;3.07;;;2.43;;
11854;SDS011;5987;53.140;8.904;2023-06-24T17:09:25;4.13;;;2.73;;
11854;SDS011;5987;53.140;8.904;2023-06-24T17:12:30;5.47;;;3.17;;
11854;SDS011;5987;53.140;8.904;2023-06-24T17:15:34;4.03;;;3.27;;
11854;SDS011;5987;53.140;8.904;2023-06-24T17:18:38;5.37;;;3.03;;
11854;SDS011;5987;53.140;8.904;2023-06-24T17:21:42;3.67;;;3.27;;
11854;SDS011;5987;53.140;8.904;2023-06-24T17:24:45;3.83;;;2.87;;
11854;SDS011;5987;53.140;8.904;2023-06-24T17:27:50;4.67;;;2.80;;
11854;SDS011;5987;53.140;8.904;2023-06-24T17:30:54;3.03;;;2.70;;
11854;SDS011;5987;53.140;8.904;2023-06-24T17:33:58;4.77;;;3.30;;
11854;SDS011;5987;53.140;8.904;2023-06-24T17:37:03;4.83;;;3.27;;
11854;SDS011;5987;53.140;8.904;2023-06-24T17:40:07;3.43;;;2.83;;
11854;SDS011;5987;53.140;8.904;2023-06-24T17:43:14;6.40;;;3.07;;
11854;SDS011;5987;53.140;8.904;2023-06-24T17:46:18;4.43;;;2.97;;
11854;SDS011;5987;53.140;8.904;2023-06-24T17:49:21;7.00;;;3.60;;
11854;SDS011;5987;53.140;8.904;2023-06-24T17:52:25;4.80;;;3.30;;
11854;SDS011;5987;53.140;8.904;2023-06-24T17:55:29;3.50;;;3.13;;
11854;SDS011;5987;53.140;8.904;2023-06-24T17:58:38;5.83;;;3.33;;
11854;SDS011;5987;53.140;8.904;2023-06-24T18:01:43;3.10;;;2.70;;
11854;SDS011;5987;53.140;8.904;2023-06-24T18:04:47;3.33;;;3.03;;
11854;SDS011;5987;53.140;8.904;2023-06-24T18:07:50;4.70;;;3.37;;
11854;SDS011;5987;53.140;8.904;2023-06-24T18:10:54;3.90;;;3.00;;
11854;SDS011;5987;53.140;8.904;2023-06-24T18:13:59;3.37;;;2.80;;
11854;SDS011;5987;53.140;8.904;2023-06-24T18:17:03;5.87;;;3.67;;
11854;SDS011;5987;53.140;8.904;2023-06-24T18:20:08;3.67;;;2.80;;
11854;SDS011;5987;53.140;8.904;2023-06-24T18:23:13;3.67;;;3.23;;
11854;SDS011;5987;53.140;8.904;2023-06-24T18:26:17;4.47;;;2.87;;
11854;SDS011;5987;53.140;8.904;2023-06-24T18:29:25;3.63;;;2.80;;
11854;SDS011;5987;53.140;8.904;2023-06-24T18:32:29;4.47;;;3.57;;
11854;SDS011;5987;53.140;8.904;2023-06-24T18:35:33;3.17;;;2.83;;
11854;SDS011;5987;53.140;8.904;2023-06-24T18:38:37;3.87;;;3.13;;
11854;SDS011;5987;53.140;8.904;2023-06-24T18:41:41;4.37;;;3.43;;
11854;SDS011;5987;53.140;8.904;2023-06-24T18:44:48;7.70;;;3.73;;
11854;SDS011;5987;53.140;8.904;2023-06-24T18:47:51;3.30;;;3.00;;
11854;SDS011;5987;53.140;8.904;2023-06-24T18:50:57;3.47;;;2.77;;
11854;SDS011;5987;53.140;8.904;2023-06-24T18:54:01;8.43;;;2.90;;